sensor_id;sensor_type;location;lat;lon;timestamp;P1;durP1;ratioP1;P2;durP2;ratioP2
73072;SDS011;61260;51.090;-1.786;2023-02-01T00:00:18;2.50;;;0.70;;
73072;SDS011;61260;51.090;-1.786;2023-02-01T00:02:49;1.80;;;0.40;;
73072;SDS011;61260;51.090;-1.786;2023-02-01T00:05:19;1.50;;;0.60;;
73072;SDS011;61260;51.090;-1.786;2023-02-01T00:07:48;1.30;;;0.40;;
73072;SDS011;61260;51.090;-1.786;2023-02-01T00:10:18;1.60;;;0.30;;
73072;SDS011;61260;51.090;-1.786;2023-02-01T00:12:48;1.60;;;0.50;;
73072;SDS011;61260;51.090;-1.786;2023-02-01T00:15:18;2.60;;;0.40;;
73072;SDS011;61260;51.090;-1.786;2023-02-01T00:17:49;1.10;;;0.30;;
73072;SDS011;61260;51.090;-1.786;2023-02-01T00:20:22;1.90;;;0.30;;
73072;SDS011;61260;51.090;-1.786;2023-02-01T00:22:52;1.90;;;0.80;;
73072;SDS011;61260;51.090;-1.786;2023-02-01T00:25:23;1.60;;;0.40;;
73072;SDS011;61260;51.090;-1.786;2023-02-01T00:27:53;1.70;;;0.40;;
73072;SDS011;61260;51.090;-1.786;2023-02-01T00:30:26;0.50;;;0.30;;
73072;SDS011;61260;51.090;-1.786;2023-02-01T00:32:56;2.60;;;0.60;;
73072;SDS011;61260;51.090;-1.786;2023-02-01T00:35:25;1.40;;;0.40;;
73072;SDS011;61260;51.090;-1.786;2023-02-01T00:37:55;1.60;;;0.60;;
73072;SDS011;61260;51.090;-1.786;2023-02-01T00:42:55;0.70;;;0.30;;
73072;SDS011;61260;51.090;-1.786;2023-02-01T00:45:25;1.40;;;0.40;;
73072;SDS011;61260;51.090;-1.786;2023-02-01T00:47:55;1.80;;;0.40;;
73072;SDS011;61260;51.090;-1.786;2023-02-01T00:50:25;1.40;;;0.30;;
73072;SDS011;61260;51.090;-1.786;2023-02-01T00:52:55;1.50;;;0.60;;
73072;SDS011;61260;51.090;-1.786;2023-02-01T00:55:25;0.90;;;0.30;;
73072;SDS011;61260;51.090;-1.786;2023-02-01T00:57:55;2.50;;;0.50;;
73072;SDS011;61260;51.090;-1.786;2023-02-01T01:00:25;2.10;;;0.40;;
73072;SDS011;61260;51.090;-1.786;2023-02-01T01:02:55;1.30;;;0.40;;
73072;SDS011;61260;51.090;-1.786;2023-02-01T01:05:26;1.20;;;0.40;;
73072;SDS011;61260;51.090;-1.786;2023-02-01T01:07:56;2.00;;;0.40;;
73072;SDS011;61260;51.090;-1.786;2023-02-01T01:10:26;1.10;;;0.50;;
73072;SDS011;61260;51.090;-1.786;2023-02-01T01:12:57;1.40;;;0.50;;
73072;SDS011;61260;51.090;-1.786;2023-02-01T01:15:26;1.10;;;0.30;;
73072;SDS011;61260;51.090;-1.786;2023-02-01T01:17:56;2.20;;;0.50;;
73072;SDS011;61260;51.090;-1.786;2023-02-01T01:20:26;1.40;;;0.50;;
73072;SDS011;61260;51.090;-1.786;2023-02-01T01:22:56;1.10;;;0.30;;
73072;SDS011;61260;51.090;-1.786;2023-02-01T01:25:26;2.60;;;0.50;;
73072;SDS011;61260;51.090;-1.786;2023-02-01T01:27:56;1.10;;;0.30;;
73072;SDS011;61260;51.090;-1.786;2023-02-01T01:30:26;1.50;;;0.50;;
73072;SDS011;61260;51.090;-1.786;2023-02-01T01:32:56;1.10;;;0.20;;
73072;SDS011;61260;51.090;-1.786;2023-02-01T01:35:26;1.20;;;0.50;;
73072;SDS011;61260;51.090;-1.786;2023-02-01T01:37:58;1.90;;;0.50;;
73072;SDS011;61260;51.090;-1.786;2023-02-01T01:40:29;0.50;;;0.30;;
73072;SDS011;61260;51.090;-1.786;2023-02-01T01:42:59;1.20;;;0.40;;
73072;SDS011;61260;51.090;-1.786;2023-02-01T01:45:31;0.60;;;0.30;;
73072;SDS011;61260;51.090;-1.786;2023-02-01T01:48:03;0.80;;;0.40;;
73072;SDS011;61260;51.090;-1.786;2023-02-01T01:50:37;2.10;;;0.30;;
73072;SDS011;61260;51.090;-1.786;2023-02-01T01:53:11;1.40;;;0.40;;
73072;SDS011;61260;51.090;-1.786;2023-02-01T01:55:44;1.90;;;0.80;;
73072;SDS011;61260;51.090;-1.786;2023-02-01T01:58:17;0.90;;;0.40;;
73072;SDS011;61260;51.090;-1.786;2023-02-01T02:00:49;1.70;;;0.40;;
73072;SDS011;61260;51.090;-1.786;2023-02-01T02:03:20;1.40;;;0.30;;
73072;SDS011;61260;51.090;-1.786;2023-02-01T02:05:53;3.10;;;0.60;;
73072;SDS011;61260;51.090;-1.786;2023-02-01T02:08:26;1.20;;;0.50;;
73072;SDS011;61260;51.090;-1.786;2023-02-01T02:10:56;3.80;;;0.50;;
73072;SDS011;61260;51.090;-1.786;2023-02-01T02:13:31;1.10;;;0.40;;
73072;SDS011;61260;51.090;-1.786;2023-02-01T02:16:07;1.60;;;0.50;;
73072;SDS011;61260;51.090;-1.786;2023-02-01T02:19:06;1.40;;;0.20;;
73072;SDS011;61260;51.090;-1.786;2023-02-01T02:22:09;1.20;;;0.40;;
73072;SDS011;61260;51.090;-1.786;2023-02-01T02:27:48;0.90;;;0.40;;
73072;SDS011;61260;51.090;-1.786;2023-02-01T02:33:41;1.50;;;0.40;;
73072;SDS011;61260;51.090;-1.786;2023-02-01T02:36:21;1.50;;;0.40;;
73072;SDS011;61260;51.090;-1.786;2023-02-01T02:39:02;1.60;;;0.40;;
73072;SDS011;61260;51.090;-1.786;2023-02-01T02:41:39;1.30;;;0.60;;
73072;SDS011;61260;51.090;-1.786;2023-02-01T02:44:34;1.50;;;0.40;;
73072;SDS011;61260;51.090;-1.786;2023-02-01T02:47:33;2.70;;;0.60;;
73072;SDS011;61260;51.090;-1.786;2023-02-01T02:50:14;2.40;;;0.40;;
73072;SDS011;61260;51.090;-1.786;2023-02-01T02:53:09;1.30;;;0.50;;
73072;SDS011;61260;51.090;-1.786;2023-02-01T02:56:00;1.50;;;0.40;;
73072;SDS011;61260;51.090;-1.786;2023-02-01T02:58:52;1.50;;;0.30;;
73072;SDS011;61260;51.090;-1.786;2023-02-01T03:01:40;1.20;;;0.40;;
73072;SDS011;61260;51.090;-1.786;2023-02-01T03:04:29;1.60;;;0.50;;
73072;SDS011;61260;51.090;-1.786;2023-02-01T03:07:10;1.20;;;0.30;;
73072;SDS011;61260;51.090;-1.786;2023-02-01T03:09:43;1.20;;;0.20;;
73072;SDS011;61260;51.090;-1.786;2023-02-01T03:12:15;1.20;;;0.30;;
73072;SDS011;61260;51.090;-1.786;2023-02-01T03:15:05;3.30;;;0.40;;
73072;SDS011;61260;51.090;-1.786;2023-02-01T03:17:39;0.90;;;0.40;;
73072;SDS011;61260;51.090;-1.786;2023-02-01T03:20:13;1.90;;;0.40;;
73072;SDS011;61260;51.090;-1.786;2023-02-01T03:22:46;2.10;;;0.50;;
73072;SDS011;61260;51.090;-1.786;2023-02-01T03:25:20;1.40;;;0.40;;
73072;SDS011;61260;51.090;-1.786;2023-02-01T03:27:54;3.60;;;0.60;;
73072;SDS011;61260;51.090;-1.786;2023-02-01T03:30:28;0.50;;;0.20;;
73072;SDS011;61260;51.090;-1.786;2023-02-01T03:33:03;1.00;;;0.30;;
73072;SDS011;61260;51.090;-1.786;2023-02-01T03:35:42;1.10;;;0.70;;
73072;SDS011;61260;51.090;-1.786;2023-02-01T03:38:19;0.90;;;0.30;;
73072;SDS011;61260;51.090;-1.786;2023-02-01T03:40:55;1.30;;;0.50;;
73072;SDS011;61260;51.090;-1.786;2023-02-01T03:43:29;1.50;;;0.30;;
73072;SDS011;61260;51.090;-1.786;2023-02-01T03:46:09;1.90;;;0.40;;
73072;SDS011;61260;51.090;-1.786;2023-02-01T03:48:45;1.20;;;0.30;;
73072;SDS011;61260;51.090;-1.786;2023-02-01T03:51:15;1.70;;;0.50;;
73072;SDS011;61260;51.090;-1.786;2023-02-01T03:53:47;1.00;;;0.20;;
73072;SDS011;61260;51.090;-1.786;2023-02-01T03:56:19;0.70;;;0.40;;
73072;SDS011;61260;51.090;-1.786;2023-02-01T03:58:52;1.30;;;0.50;;
73072;SDS011;61260;51.090;-1.786;2023-02-01T04:01:27;1.50;;;0.40;;
73072;SDS011;61260;51.090;-1.786;2023-02-01T04:03:59;1.20;;;0.30;;
73072;SDS011;61260;51.090;-1.786;2023-02-01T04:06:29;1.00;;;0.20;;
73072;SDS011;61260;51.090;-1.786;2023-02-01T04:09:00;1.20;;;0.40;;
73072;SDS011;61260;51.090;-1.786;2023-02-01T04:11:30;1.80;;;0.70;;
73072;SDS011;61260;51.090;-1.786;2023-02-01T04:14:00;2.60;;;0.40;;
73072;SDS011;61260;51.090;-1.786;2023-02-01T04:16:30;1.30;;;0.30;;
73072;SDS011;61260;51.090;-1.786;2023-02-01T04:19:01;2.10;;;0.40;;
73072;SDS011;61260;51.090;-1.786;2023-02-01T04:21:31;0.80;;;0.30;;
73072;SDS011;61260;51.090;-1.786;2023-02-01T04:24:00;1.50;;;0.30;;
73072;SDS011;61260;51.090;-1.786;2023-02-01T04:26:31;1.00;;;0.30;;
73072;SDS011;61260;51.090;-1.786;2023-02-01T04:29:01;2.20;;;0.40;;
73072;SDS011;61260;51.090;-1.786;2023-02-01T04:31:31;0.80;;;0.20;;
73072;SDS011;61260;51.090;-1.786;2023-02-01T04:34:03;1.70;;;0.50;;
73072;SDS011;61260;51.090;-1.786;2023-02-01T04:36:33;1.00;;;0.30;;
73072;SDS011;61260;51.090;-1.786;2023-02-01T04:39:02;1.70;;;0.40;;
73072;SDS011;61260;51.090;-1.786;2023-02-01T04:41:32;1.00;;;0.20;;
73072;SDS011;61260;51.090;-1.786;2023-02-01T04:44:03;2.20;;;0.50;;
73072;SDS011;61260;51.090;-1.786;2023-02-01T04:46:33;1.50;;;0.40;;
73072;SDS011;61260;51.090;-1.786;2023-02-01T04:49:03;1.40;;;0.50;;
73072;SDS011;61260;51.090;-1.786;2023-02-01T04:51:33;1.80;;;0.30;;
73072;SDS011;61260;51.090;-1.786;2023-02-01T04:54:04;1.10;;;0.30;;
73072;SDS011;61260;51.090;-1.786;2023-02-01T04:56:34;1.60;;;0.30;;
73072;SDS011;61260;51.090;-1.786;2023-02-01T04:59:04;1.10;;;0.30;;
73072;SDS011;61260;51.090;-1.786;2023-02-01T05:01:34;1.20;;;0.20;;
73072;SDS011;61260;51.090;-1.786;2023-02-01T05:04:04;0.70;;;0.10;;
73072;SDS011;61260;51.090;-1.786;2023-02-01T05:06:34;0.90;;;0.30;;
73072;SDS011;61260;51.090;-1.786;2023-02-01T05:09:04;0.90;;;0.30;;
73072;SDS011;61260;51.090;-1.786;2023-02-01T05:11:34;2.70;;;0.40;;
73072;SDS011;61260;51.090;-1.786;2023-02-01T05:14:22;0.90;;;0.20;;
73072;SDS011;61260;51.090;-1.786;2023-02-01T05:16:51;2.50;;;0.40;;
73072;SDS011;61260;51.090;-1.786;2023-02-01T05:19:21;0.60;;;0.20;;
73072;SDS011;61260;51.090;-1.786;2023-02-01T05:21:51;0.50;;;0.10;;
73072;SDS011;61260;51.090;-1.786;2023-02-01T05:24:21;1.90;;;0.30;;
73072;SDS011;61260;51.090;-1.786;2023-02-01T05:26:51;1.50;;;0.20;;
73072;SDS011;61260;51.090;-1.786;2023-02-01T05:29:21;2.10;;;0.50;;
73072;SDS011;61260;51.090;-1.786;2023-02-01T05:31:51;1.30;;;0.30;;
73072;SDS011;61260;51.090;-1.786;2023-02-01T05:34:21;0.90;;;0.20;;
73072;SDS011;61260;51.090;-1.786;2023-02-01T05:36:51;1.50;;;0.50;;
73072;SDS011;61260;51.090;-1.786;2023-02-01T05:39:21;0.50;;;0.20;;
73072;SDS011;61260;51.090;-1.786;2023-02-01T05:41:51;2.10;;;0.50;;
73072;SDS011;61260;51.090;-1.786;2023-02-01T05:44:21;0.90;;;0.30;;
73072;SDS011;61260;51.090;-1.786;2023-02-01T05:46:51;1.60;;;0.40;;
73072;SDS011;61260;51.090;-1.786;2023-02-01T05:49:20;0.90;;;0.30;;
73072;SDS011;61260;51.090;-1.786;2023-02-01T05:51:50;0.80;;;0.30;;
73072;SDS011;61260;51.090;-1.786;2023-02-01T05:54:20;2.50;;;0.50;;
73072;SDS011;61260;51.090;-1.786;2023-02-01T05:56:50;0.70;;;0.20;;
73072;SDS011;61260;51.090;-1.786;2023-02-01T05:59:20;1.20;;;0.40;;
73072;SDS011;61260;51.090;-1.786;2023-02-01T06:01:50;1.00;;;0.30;;
73072;SDS011;61260;51.090;-1.786;2023-02-01T06:04:20;2.20;;;0.50;;
73072;SDS011;61260;51.090;-1.786;2023-02-01T06:06:50;1.10;;;0.20;;
73072;SDS011;61260;51.090;-1.786;2023-02-01T06:09:20;1.60;;;0.40;;
73072;SDS011;61260;51.090;-1.786;2023-02-01T06:11:49;0.70;;;0.20;;
73072;SDS011;61260;51.090;-1.786;2023-02-01T06:14:20;0.90;;;0.20;;
73072;SDS011;61260;51.090;-1.786;2023-02-01T06:16:50;0.50;;;0.10;;
73072;SDS011;61260;51.090;-1.786;2023-02-01T06:19:20;1.30;;;0.40;;
73072;SDS011;61260;51.090;-1.786;2023-02-01T06:21:50;2.10;;;0.50;;
73072;SDS011;61260;51.090;-1.786;2023-02-01T06:24:20;1.40;;;0.30;;
73072;SDS011;61260;51.090;-1.786;2023-02-01T06:26:50;0.90;;;0.30;;
73072;SDS011;61260;51.090;-1.786;2023-02-01T06:29:20;1.10;;;0.20;;
73072;SDS011;61260;51.090;-1.786;2023-02-01T06:31:50;0.30;;;0.20;;
73072;SDS011;61260;51.090;-1.786;2023-02-01T06:34:20;0.60;;;0.20;;
73072;SDS011;61260;51.090;-1.786;2023-02-01T06:36:50;1.20;;;0.30;;
73072;SDS011;61260;51.090;-1.786;2023-02-01T06:39:21;1.90;;;0.40;;
73072;SDS011;61260;51.090;-1.786;2023-02-01T06:41:51;0.80;;;0.10;;
73072;SDS011;61260;51.090;-1.786;2023-02-01T06:44:21;0.60;;;0.20;;
73072;SDS011;61260;51.090;-1.786;2023-02-01T06:46:51;1.00;;;0.20;;
73072;SDS011;61260;51.090;-1.786;2023-02-01T06:49:21;1.00;;;0.60;;
73072;SDS011;61260;51.090;-1.786;2023-02-01T06:51:51;2.00;;;0.30;;
73072;SDS011;61260;51.090;-1.786;2023-02-01T06:54:21;0.90;;;0.40;;
73072;SDS011;61260;51.090;-1.786;2023-02-01T06:56:51;1.10;;;0.30;;
73072;SDS011;61260;51.090;-1.786;2023-02-01T06:59:21;1.00;;;0.30;;
73072;SDS011;61260;51.090;-1.786;2023-02-01T07:01:51;0.60;;;0.20;;
73072;SDS011;61260;51.090;-1.786;2023-02-01T07:04:21;1.20;;;0.30;;
73072;SDS011;61260;51.090;-1.786;2023-02-01T07:06:51;0.40;;;0.20;;
73072;SDS011;61260;51.090;-1.786;2023-02-01T07:09:21;0.90;;;0.20;;
73072;SDS011;61260;51.090;-1.786;2023-02-01T07:11:51;0.80;;;0.20;;
73072;SDS011;61260;51.090;-1.786;2023-02-01T07:14:21;1.00;;;0.30;;
73072;SDS011;61260;51.090;-1.786;2023-02-01T07:16:51;2.10;;;0.50;;
73072;SDS011;61260;51.090;-1.786;2023-02-01T07:19:20;0.50;;;0.20;;
73072;SDS011;61260;51.090;-1.786;2023-02-01T07:21:50;1.50;;;0.50;;
73072;SDS011;61260;51.090;-1.786;2023-02-01T07:24:21;1.50;;;0.50;;
73072;SDS011;61260;51.090;-1.786;2023-02-01T07:26:51;1.90;;;0.50;;
73072;SDS011;61260;51.090;-1.786;2023-02-01T07:29:20;1.80;;;0.50;;
73072;SDS011;61260;51.090;-1.786;2023-02-01T07:31:50;1.30;;;0.40;;
73072;SDS011;61260;51.090;-1.786;2023-02-01T07:34:20;1.80;;;0.40;;
73072;SDS011;61260;51.090;-1.786;2023-02-01T07:36:51;1.10;;;0.30;;
73072;SDS011;61260;51.090;-1.786;2023-02-01T07:39:21;1.90;;;0.40;;
73072;SDS011;61260;51.090;-1.786;2023-02-01T07:41:51;1.80;;;0.60;;
73072;SDS011;61260;51.090;-1.786;2023-02-01T07:44:21;1.50;;;0.40;;
73072;SDS011;61260;51.090;-1.786;2023-02-01T07:46:51;1.80;;;0.40;;
73072;SDS011;61260;51.090;-1.786;2023-02-01T07:49:21;1.20;;;0.40;;
73072;SDS011;61260;51.090;-1.786;2023-02-01T07:51:51;1.20;;;0.30;;
73072;SDS011;61260;51.090;-1.786;2023-02-01T07:54:21;2.70;;;0.90;;
73072;SDS011;61260;51.090;-1.786;2023-02-01T07:56:50;7.90;;;0.90;;
73072;SDS011;61260;51.090;-1.786;2023-02-01T07:59:20;7.70;;;1.10;;
73072;SDS011;61260;51.090;-1.786;2023-02-01T08:01:50;4.20;;;0.50;;
73072;SDS011;61260;51.090;-1.786;2023-02-01T08:04:20;5.00;;;0.80;;
73072;SDS011;61260;51.090;-1.786;2023-02-01T08:06:50;5.20;;;0.70;;
73072;SDS011;61260;51.090;-1.786;2023-02-01T08:09:20;3.60;;;0.70;;
73072;SDS011;61260;51.090;-1.786;2023-02-01T08:11:50;4.00;;;0.60;;
73072;SDS011;61260;51.090;-1.786;2023-02-01T08:14:20;4.60;;;0.60;;
73072;SDS011;61260;51.090;-1.786;2023-02-01T08:16:49;5.90;;;0.70;;
73072;SDS011;61260;51.090;-1.786;2023-02-01T08:19:19;2.20;;;0.70;;
73072;SDS011;61260;51.090;-1.786;2023-02-01T08:21:49;2.50;;;0.50;;
73072;SDS011;61260;51.090;-1.786;2023-02-01T08:24:19;3.40;;;0.60;;
73072;SDS011;61260;51.090;-1.786;2023-02-01T08:26:49;4.80;;;0.60;;
73072;SDS011;61260;51.090;-1.786;2023-02-01T08:29:19;2.80;;;0.60;;
73072;SDS011;61260;51.090;-1.786;2023-02-01T08:31:49;3.00;;;0.70;;
73072;SDS011;61260;51.090;-1.786;2023-02-01T08:34:20;2.70;;;0.80;;
73072;SDS011;61260;51.090;-1.786;2023-02-01T08:36:51;3.10;;;0.60;;
73072;SDS011;61260;51.090;-1.786;2023-02-01T08:39:25;2.50;;;0.60;;
73072;SDS011;61260;51.090;-1.786;2023-02-01T08:41:55;3.70;;;1.00;;
73072;SDS011;61260;51.090;-1.786;2023-02-01T08:44:43;3.10;;;1.20;;
73072;SDS011;61260;51.090;-1.786;2023-02-01T08:47:13;3.40;;;0.80;;
73072;SDS011;61260;51.090;-1.786;2023-02-01T08:49:43;3.10;;;0.60;;
73072;SDS011;61260;51.090;-1.786;2023-02-01T08:52:13;3.10;;;0.60;;
73072;SDS011;61260;51.090;-1.786;2023-02-01T08:54:44;2.30;;;0.60;;
73072;SDS011;61260;51.090;-1.786;2023-02-01T08:57:14;3.60;;;1.00;;
73072;SDS011;61260;51.090;-1.786;2023-02-01T08:59:43;2.10;;;1.00;;
73072;SDS011;61260;51.090;-1.786;2023-02-01T09:02:14;2.90;;;0.40;;
73072;SDS011;61260;51.090;-1.786;2023-02-01T09:04:45;2.50;;;0.70;;
73072;SDS011;61260;51.090;-1.786;2023-02-01T09:07:15;1.30;;;0.90;;
73072;SDS011;61260;51.090;-1.786;2023-02-01T09:09:45;2.90;;;0.70;;
73072;SDS011;61260;51.090;-1.786;2023-02-01T09:12:15;3.10;;;0.80;;
73072;SDS011;61260;51.090;-1.786;2023-02-01T09:14:44;3.20;;;0.70;;
73072;SDS011;61260;51.090;-1.786;2023-02-01T09:17:15;2.60;;;0.70;;
73072;SDS011;61260;51.090;-1.786;2023-02-01T09:19:45;2.40;;;0.50;;
73072;SDS011;61260;51.090;-1.786;2023-02-01T09:22:15;2.80;;;0.60;;
73072;SDS011;61260;51.090;-1.786;2023-02-01T09:24:45;3.90;;;0.70;;
73072;SDS011;61260;51.090;-1.786;2023-02-01T09:27:15;2.80;;;0.60;;
73072;SDS011;61260;51.090;-1.786;2023-02-01T09:29:45;3.50;;;1.00;;
73072;SDS011;61260;51.090;-1.786;2023-02-01T09:32:19;4.30;;;0.90;;
73072;SDS011;61260;51.090;-1.786;2023-02-01T09:34:50;5.40;;;1.10;;
73072;SDS011;61260;51.090;-1.786;2023-02-01T09:37:20;5.60;;;1.20;;
73072;SDS011;61260;51.090;-1.786;2023-02-01T09:39:50;4.50;;;1.00;;
73072;SDS011;61260;51.090;-1.786;2023-02-01T09:42:25;4.10;;;1.00;;
73072;SDS011;61260;51.090;-1.786;2023-02-01T09:45:16;7.20;;;1.40;;
73072;SDS011;61260;51.090;-1.786;2023-02-01T09:47:53;5.10;;;1.20;;
73072;SDS011;61260;51.090;-1.786;2023-02-01T09:50:30;5.30;;;1.40;;
73072;SDS011;61260;51.090;-1.786;2023-02-01T09:53:05;5.60;;;1.10;;
73072;SDS011;61260;51.090;-1.786;2023-02-01T09:55:41;4.70;;;1.00;;
73072;SDS011;61260;51.090;-1.786;2023-02-01T09:58:17;5.40;;;1.10;;
73072;SDS011;61260;51.090;-1.786;2023-02-01T10:00:54;5.10;;;1.10;;
73072;SDS011;61260;51.090;-1.786;2023-02-01T10:03:26;4.90;;;1.20;;
73072;SDS011;61260;51.090;-1.786;2023-02-01T10:06:09;4.30;;;0.90;;
73072;SDS011;61260;51.090;-1.786;2023-02-01T10:09:01;3.30;;;0.90;;
73072;SDS011;61260;51.090;-1.786;2023-02-01T10:11:45;3.40;;;1.00;;
73072;SDS011;61260;51.090;-1.786;2023-02-01T10:14:34;5.60;;;1.20;;
73072;SDS011;61260;51.090;-1.786;2023-02-01T10:17:18;3.40;;;0.90;;
73072;SDS011;61260;51.090;-1.786;2023-02-01T10:19:57;4.00;;;0.70;;
73072;SDS011;61260;51.090;-1.786;2023-02-01T10:22:40;5.90;;;1.70;;
73072;SDS011;61260;51.090;-1.786;2023-02-01T10:25:14;6.90;;;0.90;;
73072;SDS011;61260;51.090;-1.786;2023-02-01T10:27:50;4.60;;;0.90;;
73072;SDS011;61260;51.090;-1.786;2023-02-01T10:30:22;6.10;;;1.70;;
73072;SDS011;61260;51.090;-1.786;2023-02-01T10:32:56;10.20;;;1.50;;
73072;SDS011;61260;51.090;-1.786;2023-02-01T10:35:34;6.80;;;0.70;;
73072;SDS011;61260;51.090;-1.786;2023-02-01T10:38:09;6.00;;;0.90;;
73072;SDS011;61260;51.090;-1.786;2023-02-01T10:40:48;3.50;;;1.40;;
73072;SDS011;61260;51.090;-1.786;2023-02-01T10:43:19;5.60;;;1.20;;
73072;SDS011;61260;51.090;-1.786;2023-02-01T10:45:50;2.80;;;0.70;;
73072;SDS011;61260;51.090;-1.786;2023-02-01T10:48:22;4.10;;;1.40;;
73072;SDS011;61260;51.090;-1.786;2023-02-01T10:50:53;3.50;;;1.00;;
73072;SDS011;61260;51.090;-1.786;2023-02-01T10:53:28;3.70;;;1.10;;
73072;SDS011;61260;51.090;-1.786;2023-02-01T10:56:06;2.00;;;0.60;;
73072;SDS011;61260;51.090;-1.786;2023-02-01T10:58:43;3.50;;;1.10;;
73072;SDS011;61260;51.090;-1.786;2023-02-01T11:01:17;3.80;;;1.20;;
73072;SDS011;61260;51.090;-1.786;2023-02-01T11:03:53;3.60;;;0.70;;
73072;SDS011;61260;51.090;-1.786;2023-02-01T11:06:29;3.00;;;1.10;;
73072;SDS011;61260;51.090;-1.786;2023-02-01T11:09:10;2.30;;;0.70;;
73072;SDS011;61260;51.090;-1.786;2023-02-01T11:11:54;6.00;;;1.10;;
73072;SDS011;61260;51.090;-1.786;2023-02-01T11:14:30;4.10;;;0.80;;
73072;SDS011;61260;51.090;-1.786;2023-02-01T11:17:15;5.70;;;1.00;;
73072;SDS011;61260;51.090;-1.786;2023-02-01T11:19:57;3.90;;;1.20;;
73072;SDS011;61260;51.090;-1.786;2023-02-01T11:22:29;6.40;;;1.40;;
73072;SDS011;61260;51.090;-1.786;2023-02-01T11:24:59;5.90;;;1.10;;
73072;SDS011;61260;51.090;-1.786;2023-02-01T11:27:35;5.30;;;0.90;;
73072;SDS011;61260;51.090;-1.786;2023-02-01T11:30:13;6.20;;;1.10;;
73072;SDS011;61260;51.090;-1.786;2023-02-01T11:32:46;4.50;;;0.90;;
73072;SDS011;61260;51.090;-1.786;2023-02-01T11:35:19;2.80;;;1.00;;
73072;SDS011;61260;51.090;-1.786;2023-02-01T11:37:52;6.50;;;1.30;;
73072;SDS011;61260;51.090;-1.786;2023-02-01T11:40:27;5.20;;;1.50;;
73072;SDS011;61260;51.090;-1.786;2023-02-01T11:43:08;5.00;;;1.30;;
73072;SDS011;61260;51.090;-1.786;2023-02-01T11:45:53;5.30;;;1.60;;
73072;SDS011;61260;51.090;-1.786;2023-02-01T11:48:25;5.90;;;1.60;;
73072;SDS011;61260;51.090;-1.786;2023-02-01T11:54:02;8.50;;;1.40;;
73072;SDS011;61260;51.090;-1.786;2023-02-01T11:56:44;7.10;;;1.20;;
73072;SDS011;61260;51.090;-1.786;2023-02-01T11:59:26;3.50;;;1.00;;
73072;SDS011;61260;51.090;-1.786;2023-02-01T12:05:38;4.10;;;1.40;;
73072;SDS011;61260;51.090;-1.786;2023-02-01T12:11:33;4.70;;;1.20;;
73072;SDS011;61260;51.090;-1.786;2023-02-01T12:14:23;6.10;;;1.10;;
73072;SDS011;61260;51.090;-1.786;2023-02-01T12:20:21;4.30;;;1.30;;
73072;SDS011;61260;51.090;-1.786;2023-02-01T12:23:10;3.10;;;1.00;;
73072;SDS011;61260;51.090;-1.786;2023-02-01T12:26:00;6.60;;;1.20;;
73072;SDS011;61260;51.090;-1.786;2023-02-01T12:29:00;7.70;;;1.30;;
73072;SDS011;61260;51.090;-1.786;2023-02-01T12:32:03;5.00;;;0.80;;
73072;SDS011;61260;51.090;-1.786;2023-02-01T12:34:53;4.10;;;1.00;;
73072;SDS011;61260;51.090;-1.786;2023-02-01T12:37:38;4.20;;;1.00;;
73072;SDS011;61260;51.090;-1.786;2023-02-01T12:40:25;3.50;;;1.20;;
73072;SDS011;61260;51.090;-1.786;2023-02-01T12:43:07;5.10;;;1.30;;
73072;SDS011;61260;51.090;-1.786;2023-02-01T12:45:44;6.40;;;1.10;;
73072;SDS011;61260;51.090;-1.786;2023-02-01T12:48:25;6.10;;;0.80;;
73072;SDS011;61260;51.090;-1.786;2023-02-01T12:51:01;3.90;;;1.00;;
73072;SDS011;61260;51.090;-1.786;2023-02-01T12:53:37;5.20;;;0.90;;
73072;SDS011;61260;51.090;-1.786;2023-02-01T12:56:19;4.80;;;1.00;;
73072;SDS011;61260;51.090;-1.786;2023-02-01T12:58:54;2.90;;;0.90;;
73072;SDS011;61260;51.090;-1.786;2023-02-01T13:01:28;6.00;;;1.00;;
73072;SDS011;61260;51.090;-1.786;2023-02-01T13:04:05;4.20;;;1.00;;
73072;SDS011;61260;51.090;-1.786;2023-02-01T13:06:41;4.10;;;1.00;;
73072;SDS011;61260;51.090;-1.786;2023-02-01T13:09:17;4.30;;;1.10;;
73072;SDS011;61260;51.090;-1.786;2023-02-01T13:11:53;3.80;;;1.00;;
73072;SDS011;61260;51.090;-1.786;2023-02-01T13:14:27;3.10;;;0.80;;
73072;SDS011;61260;51.090;-1.786;2023-02-01T13:17:02;7.40;;;1.40;;
73072;SDS011;61260;51.090;-1.786;2023-02-01T13:19:39;1.90;;;0.50;;
73072;SDS011;61260;51.090;-1.786;2023-02-01T13:22:14;8.90;;;1.00;;
73072;SDS011;61260;51.090;-1.786;2023-02-01T13:24:48;6.30;;;1.40;;
73072;SDS011;61260;51.090;-1.786;2023-02-01T13:27:22;3.20;;;0.80;;
73072;SDS011;61260;51.090;-1.786;2023-02-01T13:29:55;4.00;;;0.80;;
73072;SDS011;61260;51.090;-1.786;2023-02-01T13:32:35;6.40;;;1.50;;
73072;SDS011;61260;51.090;-1.786;2023-02-01T13:35:21;5.00;;;1.30;;
73072;SDS011;61260;51.090;-1.786;2023-02-01T13:41:25;3.10;;;0.90;;
73072;SDS011;61260;51.090;-1.786;2023-02-01T13:43:59;8.80;;;1.60;;
73072;SDS011;61260;51.090;-1.786;2023-02-01T13:46:38;5.30;;;1.30;;
73072;SDS011;61260;51.090;-1.786;2023-02-01T13:49:13;2.70;;;0.90;;
73072;SDS011;61260;51.090;-1.786;2023-02-01T13:51:49;4.70;;;0.80;;
73072;SDS011;61260;51.090;-1.786;2023-02-01T13:54:26;3.90;;;0.90;;
73072;SDS011;61260;51.090;-1.786;2023-02-01T13:56:59;4.90;;;0.90;;
73072;SDS011;61260;51.090;-1.786;2023-02-01T14:03:01;4.90;;;0.70;;
73072;SDS011;61260;51.090;-1.786;2023-02-01T14:11:38;3.50;;;0.70;;
73072;SDS011;61260;51.090;-1.786;2023-02-01T14:17:32;5.70;;;0.70;;
73072;SDS011;61260;51.090;-1.786;2023-02-01T14:23:21;4.80;;;1.70;;
73072;SDS011;61260;51.090;-1.786;2023-02-01T14:26:16;6.00;;;0.90;;
73072;SDS011;61260;51.090;-1.786;2023-02-01T14:28:53;3.20;;;0.60;;
73072;SDS011;61260;51.090;-1.786;2023-02-01T14:31:35;2.90;;;0.60;;
73072;SDS011;61260;51.090;-1.786;2023-02-01T14:34:15;4.80;;;0.70;;
73072;SDS011;61260;51.090;-1.786;2023-02-01T14:36:50;4.10;;;0.80;;
73072;SDS011;61260;51.090;-1.786;2023-02-01T14:39:24;4.40;;;1.10;;
73072;SDS011;61260;51.090;-1.786;2023-02-01T14:41:59;2.20;;;0.40;;
73072;SDS011;61260;51.090;-1.786;2023-02-01T14:44:33;4.30;;;1.00;;
73072;SDS011;61260;51.090;-1.786;2023-02-01T14:47:08;1.90;;;0.50;;
73072;SDS011;61260;51.090;-1.786;2023-02-01T14:49:54;2.50;;;0.80;;
73072;SDS011;61260;51.090;-1.786;2023-02-01T14:52:30;2.50;;;1.00;;
73072;SDS011;61260;51.090;-1.786;2023-02-01T14:55:06;3.30;;;0.80;;
73072;SDS011;61260;51.090;-1.786;2023-02-01T14:57:46;1.50;;;0.50;;
73072;SDS011;61260;51.090;-1.786;2023-02-01T15:00:20;3.20;;;0.70;;
73072;SDS011;61260;51.090;-1.786;2023-02-01T15:02:53;2.10;;;0.70;;
73072;SDS011;61260;51.090;-1.786;2023-02-01T15:05:40;2.60;;;0.70;;
73072;SDS011;61260;51.090;-1.786;2023-02-01T15:08:13;2.50;;;0.70;;
73072;SDS011;61260;51.090;-1.786;2023-02-01T15:10:47;2.50;;;0.40;;
73072;SDS011;61260;51.090;-1.786;2023-02-01T15:13:20;3.60;;;0.70;;
73072;SDS011;61260;51.090;-1.786;2023-02-01T15:16:07;3.10;;;0.80;;
73072;SDS011;61260;51.090;-1.786;2023-02-01T15:18:40;1.90;;;0.60;;
73072;SDS011;61260;51.090;-1.786;2023-02-01T15:21:16;2.60;;;0.50;;
73072;SDS011;61260;51.090;-1.786;2023-02-01T15:23:47;3.40;;;0.90;;
73072;SDS011;61260;51.090;-1.786;2023-02-01T15:26:27;2.80;;;0.50;;
73072;SDS011;61260;51.090;-1.786;2023-02-01T15:28:59;4.60;;;0.90;;
73072;SDS011;61260;51.090;-1.786;2023-02-01T15:31:33;3.80;;;1.10;;
73072;SDS011;61260;51.090;-1.786;2023-02-01T15:34:05;2.90;;;0.50;;
73072;SDS011;61260;51.090;-1.786;2023-02-01T15:36:35;3.80;;;0.70;;
73072;SDS011;61260;51.090;-1.786;2023-02-01T15:41:59;3.80;;;0.80;;
73072;SDS011;61260;51.090;-1.786;2023-02-01T15:44:38;2.30;;;0.70;;
73072;SDS011;61260;51.090;-1.786;2023-02-01T15:47:15;4.30;;;0.70;;
73072;SDS011;61260;51.090;-1.786;2023-02-01T15:49:50;2.20;;;0.80;;
73072;SDS011;61260;51.090;-1.786;2023-02-01T15:52:23;1.90;;;0.70;;
73072;SDS011;61260;51.090;-1.786;2023-02-01T15:54:58;2.10;;;0.80;;
73072;SDS011;61260;51.090;-1.786;2023-02-01T15:57:30;2.30;;;0.70;;